sensor_id;sensor_type;location;lat;lon;timestamp;pressure;altitude;pressure_sealevel;temperature;humidity
33697;BME280;20031;43.416;23.232;2023-06-22T00:00:52;100189.38;;;22.18;73.17
33697;BME280;20031;43.416;23.232;2023-06-22T00:03:18;100177.88;;;22.12;74.00
33697;BME280;20031;43.416;23.232;2023-06-22T00:05:45;100186.47;;;22.08;74.09
33697;BME280;20031;43.416;23.232;2023-06-22T00:08:10;100178.75;;;22.06;73.67
33697;BME280;20031;43.416;23.232;2023-06-22T00:10:36;100182.94;;;22.03;74.16
33697;BME280;20031;43.416;23.232;2023-06-22T00:13:01;100181.53;;;22.00;74.18
33697;BME280;20031;43.416;23.232;2023-06-22T00:15:27;100190.28;;;22.01;73.93
33697;BME280;20031;43.416;23.232;2023-06-22T00:17:53;100200.66;;;22.02;74.09
33697;BME280;20031;43.416;23.232;2023-06-22T00:20:18;100199.88;;;22.02;73.91
33697;BME280;20031;43.416;23.232;2023-06-22T00:22:44;100205.41;;;22.00;74.50
33697;BME280;20031;43.416;23.232;2023-06-22T00:25:10;100212.53;;;22.00;74.47
33697;BME280;20031;43.416;23.232;2023-06-22T00:27:35;100208.75;;;21.96;74.69
33697;BME280;20031;43.416;23.232;2023-06-22T00:30:01;100213.22;;;21.95;75.08
33697;BME280;20031;43.416;23.232;2023-06-22T00:32:27;100210.34;;;21.97;74.51
33697;BME280;20031;43.416;23.232;2023-06-22T00:34:53;100214.41;;;21.99;74.40
33697;BME280;20031;43.416;23.232;2023-06-22T00:37:18;100205.97;;;22.02;73.95
33697;BME280;20031;43.416;23.232;2023-06-22T00:39:44;100215.78;;;22.02;74.00
33697;BME280;20031;43.416;23.232;2023-06-22T00:42:09;100210.25;;;22.03;73.78
33697;BME280;20031;43.416;23.232;2023-06-22T00:44:37;100202.06;;;22.04;73.64
33697;BME280;20031;43.416;23.232;2023-06-22T00:47:03;100200.44;;;22.03;73.58
33697;BME280;20031;43.416;23.232;2023-06-22T00:49:29;100205.03;;;21.97;73.38
33697;BME280;20031;43.416;23.232;2023-06-22T00:51:57;100194.31;;;21.92;73.76
33697;BME280;20031;43.416;23.232;2023-06-22T00:54:22;100198.00;;;21.91;73.97
33697;BME280;20031;43.416;23.232;2023-06-22T00:56:56;100191.66;;;21.92;73.69
33697;BME280;20031;43.416;23.232;2023-06-22T00:59:23;100191.19;;;21.95;73.96
33697;BME280;20031;43.416;23.232;2023-06-22T01:01:49;100190.97;;;21.96;73.51
33697;BME280;20031;43.416;23.232;2023-06-22T01:04:15;100201.59;;;21.96;73.44
33697;BME280;20031;43.416;23.232;2023-06-22T01:06:46;100198.00;;;21.91;72.86
33697;BME280;20031;43.416;23.232;2023-06-22T01:09:20;100206.25;;;21.71;73.70
33697;BME280;20031;43.416;23.232;2023-06-22T01:11:58;100213.56;;;21.58;74.05
33697;BME280;20031;43.416;23.232;2023-06-22T01:14:38;100219.03;;;21.45;74.94
33697;BME280;20031;43.416;23.232;2023-06-22T01:17:07;100215.28;;;21.35;75.18
33697;BME280;20031;43.416;23.232;2023-06-22T01:19:44;100227.00;;;21.27;75.31
33697;BME280;20031;43.416;23.232;2023-06-22T01:22:15;100239.53;;;21.20;75.74
33697;BME280;20031;43.416;23.232;2023-06-22T01:24:50;100242.47;;;21.12;76.22
33697;BME280;20031;43.416;23.232;2023-06-22T01:30:30;100244.88;;;20.96;77.11
33697;BME280;20031;43.416;23.232;2023-06-22T01:33:01;100249.25;;;20.91;77.31
33697;BME280;20031;43.416;23.232;2023-06-22T01:35:29;100247.88;;;20.82;77.34
33697;BME280;20031;43.416;23.232;2023-06-22T01:37:55;100249.78;;;20.75;78.17
33697;BME280;20031;43.416;23.232;2023-06-22T01:40:21;100250.22;;;20.72;78.11
33697;BME280;20031;43.416;23.232;2023-06-22T01:42:48;100251.84;;;20.73;78.83
33697;BME280;20031;43.416;23.232;2023-06-22T01:45:14;100244.06;;;20.78;79.16
33697;BME280;20031;43.416;23.232;2023-06-22T01:47:40;100241.41;;;20.78;78.96
33697;BME280;20031;43.416;23.232;2023-06-22T01:50:06;100234.66;;;20.82;79.03
33697;BME280;20031;43.416;23.232;2023-06-22T01:52:32;100232.59;;;20.84;79.00
33697;BME280;20031;43.416;23.232;2023-06-22T01:54:59;100227.66;;;20.87;78.96
33697;BME280;20031;43.416;23.232;2023-06-22T01:57:25;100212.28;;;20.96;78.61
33697;BME280;20031;43.416;23.232;2023-06-22T02:00:03;100215.47;;;21.04;78.96
33697;BME280;20031;43.416;23.232;2023-06-22T02:02:54;100198.91;;;21.08;78.46
33697;BME280;20031;43.416;23.232;2023-06-22T02:05:23;100208.25;;;21.11;78.14
33697;BME280;20031;43.416;23.232;2023-06-22T02:10:35;100220.47;;;21.12;77.24
33697;BME280;20031;43.416;23.232;2023-06-22T02:13:03;100227.38;;;21.13;77.28
33697;BME280;20031;43.416;23.232;2023-06-22T02:15:30;100230.97;;;21.18;77.40
33697;BME280;20031;43.416;23.232;2023-06-22T02:17:55;100230.53;;;21.21;76.94
33697;BME280;20031;43.416;23.232;2023-06-22T02:20:21;100230.09;;;21.24;77.02
33697;BME280;20031;43.416;23.232;2023-06-22T02:22:48;100235.59;;;21.23;76.63
33697;BME280;20031;43.416;23.232;2023-06-22T02:25:14;100233.63;;;21.18;76.63
33697;BME280;20031;43.416;23.232;2023-06-22T02:27:39;100238.72;;;21.20;77.00
33697;BME280;20031;43.416;23.232;2023-06-22T02:30:09;100240.63;;;21.13;76.85
33697;BME280;20031;43.416;23.232;2023-06-22T02:32:35;100244.38;;;21.05;77.12
33697;BME280;20031;43.416;23.232;2023-06-22T02:35:01;100244.53;;;20.93;77.10
33697;BME280;20031;43.416;23.232;2023-06-22T02:37:30;100256.22;;;20.85;77.39
33697;BME280;20031;43.416;23.232;2023-06-22T02:39:56;100258.91;;;20.79;77.93
33697;BME280;20031;43.416;23.232;2023-06-22T02:42:21;100264.06;;;20.74;77.76
33697;BME280;20031;43.416;23.232;2023-06-22T02:44:47;100264.31;;;20.66;78.05
33697;BME280;20031;43.416;23.232;2023-06-22T02:47:13;100266.06;;;20.54;78.57
33697;BME280;20031;43.416;23.232;2023-06-22T02:49:38;100285.06;;;20.45;78.68
33697;BME280;20031;43.416;23.232;2023-06-22T02:52:04;100288.19;;;20.35;78.75
33697;BME280;20031;43.416;23.232;2023-06-22T02:54:29;100285.59;;;20.29;79.43
33697;BME280;20031;43.416;23.232;2023-06-22T02:56:55;100280.75;;;20.26;79.80
33697;BME280;20031;43.416;23.232;2023-06-22T02:59:20;100276.25;;;20.26;80.15
33697;BME280;20031;43.416;23.232;2023-06-22T03:01:51;100277.66;;;20.29;80.17
33697;BME280;20031;43.416;23.232;2023-06-22T03:04:18;100281.72;;;20.31;80.47
33697;BME280;20031;43.416;23.232;2023-06-22T03:06:43;100281.06;;;20.36;80.50
33697;BME280;20031;43.416;23.232;2023-06-22T03:09:08;100272.03;;;20.43;80.12
33697;BME280;20031;43.416;23.232;2023-06-22T03:11:34;100276.91;;;20.46;80.42
33697;BME280;20031;43.416;23.232;2023-06-22T03:14:02;100271.56;;;20.52;80.16
33697;BME280;20031;43.416;23.232;2023-06-22T03:16:28;100279.84;;;20.62;80.48
33697;BME280;20031;43.416;23.232;2023-06-22T03:18:54;100287.28;;;20.72;80.35
33697;BME280;20031;43.416;23.232;2023-06-22T03:21:22;100290.25;;;20.82;79.89
33697;BME280;20031;43.416;23.232;2023-06-22T03:23:48;100296.16;;;20.84;79.67
33697;BME280;20031;43.416;23.232;2023-06-22T03:26:17;100289.38;;;20.88;79.66
33697;BME280;20031;43.416;23.232;2023-06-22T03:28:42;100293.38;;;20.97;79.10
33697;BME280;20031;43.416;23.232;2023-06-22T03:31:08;100298.59;;;21.03;79.18
33697;BME280;20031;43.416;23.232;2023-06-22T03:33:33;100289.59;;;21.10;79.08
33697;BME280;20031;43.416;23.232;2023-06-22T03:35:59;100288.25;;;21.19;78.79
33697;BME280;20031;43.416;23.232;2023-06-22T03:38:24;100284.13;;;21.23;78.68
33697;BME280;20031;43.416;23.232;2023-06-22T03:40:50;100277.78;;;21.24;78.30
33697;BME280;20031;43.416;23.232;2023-06-22T03:43:15;100262.63;;;21.31;78.36
33697;BME280;20031;43.416;23.232;2023-06-22T03:45:40;100260.25;;;21.41;78.20
33697;BME280;20031;43.416;23.232;2023-06-22T03:48:06;100261.44;;;21.45;78.32
33697;BME280;20031;43.416;23.232;2023-06-22T03:50:31;100268.44;;;21.57;78.23
33697;BME280;20031;43.416;23.232;2023-06-22T03:52:57;100258.03;;;21.74;77.88
33697;BME280;20031;43.416;23.232;2023-06-22T03:55:22;100247.38;;;21.92;77.43
33697;BME280;20031;43.416;23.232;2023-06-22T03:57:48;100246.16;;;22.05;76.39
33697;BME280;20031;43.416;23.232;2023-06-22T04:00:14;100250.66;;;22.16;75.31
33697;BME280;20031;43.416;23.232;2023-06-22T04:02:41;100256.25;;;22.26;73.79
33697;BME280;20031;43.416;23.232;2023-06-22T04:05:08;100258.25;;;22.42;73.46
33697;BME280;20031;43.416;23.232;2023-06-22T04:07:34;100259.06;;;22.54;72.79
33697;BME280;20031;43.416;23.232;2023-06-22T04:09:59;100260.31;;;22.63;71.76
33697;BME280;20031;43.416;23.232;2023-06-22T04:12:25;100262.66;;;22.71;71.74
33697;BME280;20031;43.416;23.232;2023-06-22T04:14:50;100260.09;;;22.87;70.84
33697;BME280;20031;43.416;23.232;2023-06-22T04:17:16;100263.34;;;23.01;70.74
33697;BME280;20031;43.416;23.232;2023-06-22T04:19:42;100263.91;;;23.14;69.94
33697;BME280;20031;43.416;23.232;2023-06-22T04:22:08;100262.84;;;23.26;69.73
33697;BME280;20031;43.416;23.232;2023-06-22T04:24:35;100261.53;;;23.40;69.33
33697;BME280;20031;43.416;23.232;2023-06-22T04:27:00;100266.00;;;23.51;68.53
33697;BME280;20031;43.416;23.232;2023-06-22T04:29:28;100268.63;;;23.62;68.09
33697;BME280;20031;43.416;23.232;2023-06-22T04:31:56;100280.88;;;23.75;66.83
33697;BME280;20031;43.416;23.232;2023-06-22T04:34:24;100291.38;;;23.81;66.69
33697;BME280;20031;43.416;23.232;2023-06-22T04:36:51;100294.06;;;23.98;66.58
33697;BME280;20031;43.416;23.232;2023-06-22T04:39:17;100289.41;;;24.05;65.56
33697;BME280;20031;43.416;23.232;2023-06-22T04:41:44;100287.34;;;24.07;65.44
33697;BME280;20031;43.416;23.232;2023-06-22T04:44:13;100294.25;;;24.08;66.21
33697;BME280;20031;43.416;23.232;2023-06-22T04:46:52;100292.53;;;24.29;65.92
33697;BME280;20031;43.416;23.232;2023-06-22T04:49:22;100297.38;;;24.32;65.00
33697;BME280;20031;43.416;23.232;2023-06-22T04:51:48;100292.16;;;24.37;65.38
33697;BME280;20031;43.416;23.232;2023-06-22T04:54:14;100303.97;;;24.58;65.48
33697;BME280;20031;43.416;23.232;2023-06-22T04:56:39;100298.47;;;24.64;65.07
33697;BME280;20031;43.416;23.232;2023-06-22T04:59:08;100300.31;;;24.80;64.42
33697;BME280;20031;43.416;23.232;2023-06-22T05:01:33;100308.03;;;25.14;64.75
33697;BME280;20031;43.416;23.232;2023-06-22T05:04:00;100313.44;;;25.35;63.81
33697;BME280;20031;43.416;23.232;2023-06-22T05:06:27;100311.69;;;25.46;63.43
33697;BME280;20031;43.416;23.232;2023-06-22T05:08:57;100308.25;;;25.67;63.06
33697;BME280;20031;43.416;23.232;2023-06-22T05:11:26;100307.66;;;25.86;62.44
33697;BME280;20031;43.416;23.232;2023-06-22T05:13:52;100310.59;;;26.11;61.06
33697;BME280;20031;43.416;23.232;2023-06-22T05:16:18;100300.13;;;26.30;60.85
33697;BME280;20031;43.416;23.232;2023-06-22T05:18:51;100306.44;;;26.51;60.57
33697;BME280;20031;43.416;23.232;2023-06-22T05:21:17;100312.47;;;26.68;59.93
33697;BME280;20031;43.416;23.232;2023-06-22T05:23:43;100311.09;;;26.60;59.25
33697;BME280;20031;43.416;23.232;2023-06-22T05:26:08;100314.09;;;26.69;59.35
33697;BME280;20031;43.416;23.232;2023-06-22T05:28:35;100314.31;;;26.67;59.51
33697;BME280;20031;43.416;23.232;2023-06-22T05:31:00;100314.88;;;26.69;59.21
33697;BME280;20031;43.416;23.232;2023-06-22T05:33:26;100319.19;;;26.70;59.40
33697;BME280;20031;43.416;23.232;2023-06-22T05:35:51;100315.81;;;26.89;59.01
33697;BME280;20031;43.416;23.232;2023-06-22T05:38:17;100313.16;;;27.26;58.33
33697;BME280;20031;43.416;23.232;2023-06-22T05:40:42;100313.59;;;27.59;57.26
33697;BME280;20031;43.416;23.232;2023-06-22T05:43:08;100315.47;;;27.63;57.06
33697;BME280;20031;43.416;23.232;2023-06-22T05:45:33;100315.47;;;27.63;56.29
33697;BME280;20031;43.416;23.232;2023-06-22T05:47:58;100319.50;;;27.61;55.40
33697;BME280;20031;43.416;23.232;2023-06-22T05:50:24;100327.47;;;27.51;54.22
33697;BME280;20031;43.416;23.232;2023-06-22T05:52:49;100320.19;;;27.41;54.30
33697;BME280;20031;43.416;23.232;2023-06-22T05:55:15;100318.53;;;27.30;54.67
33697;BME280;20031;43.416;23.232;2023-06-22T05:57:40;100320.34;;;27.25;54.90
33697;BME280;20031;43.416;23.232;2023-06-22T06:00:06;100324.66;;;27.26;55.16
33697;BME280;20031;43.416;23.232;2023-06-22T06:02:35;100332.47;;;27.32;55.76
33697;BME280;20031;43.416;23.232;2023-06-22T06:05:01;100327.66;;;27.34;55.31
33697;BME280;20031;43.416;23.232;2023-06-22T06:07:27;100328.19;;;27.36;55.73
33697;BME280;20031;43.416;23.232;2023-06-22T06:09:53;100330.22;;;27.66;56.07
33697;BME280;20031;43.416;23.232;2023-06-22T06:12:18;100328.72;;;27.89;55.68
33697;BME280;20031;43.416;23.232;2023-06-22T06:14:44;100325.88;;;28.21;55.52
33697;BME280;20031;43.416;23.232;2023-06-22T06:17:09;100332.06;;;28.56;55.36
33697;BME280;20031;43.416;23.232;2023-06-22T06:19:35;100323.50;;;28.88;54.49
33697;BME280;20031;43.416;23.232;2023-06-22T06:22:00;100322.13;;;29.11;54.33
33697;BME280;20031;43.416;23.232;2023-06-22T06:24:26;100320.50;;;29.30;53.85
33697;BME280;20031;43.416;23.232;2023-06-22T06:26:51;100319.44;;;29.11;52.82
33697;BME280;20031;43.416;23.232;2023-06-22T06:29:17;100315.38;;;29.23;50.89
33697;BME280;20031;43.416;23.232;2023-06-22T06:31:42;100316.19;;;29.24;50.95
33697;BME280;20031;43.416;23.232;2023-06-22T06:34:08;100315.69;;;29.07;51.00
33697;BME280;20031;43.416;23.232;2023-06-22T06:36:33;100321.88;;;28.97;51.71
33697;BME280;20031;43.416;23.232;2023-06-22T06:38:58;100320.81;;;28.83;52.33
33697;BME280;20031;43.416;23.232;2023-06-22T06:41:24;100321.63;;;28.79;51.40
33697;BME280;20031;43.416;23.232;2023-06-22T06:43:49;100323.75;;;28.67;51.64
33697;BME280;20031;43.416;23.232;2023-06-22T06:46:15;100319.47;;;28.56;52.65
33697;BME280;20031;43.416;23.232;2023-06-22T06:48:40;100321.06;;;28.52;53.57
33697;BME280;20031;43.416;23.232;2023-06-22T06:51:06;100324.56;;;28.43;52.84
33697;BME280;20031;43.416;23.232;2023-06-22T06:53:35;100322.56;;;28.09;53.80
33697;BME280;20031;43.416;23.232;2023-06-22T06:56:01;100321.78;;;28.08;54.51
33697;BME280;20031;43.416;23.232;2023-06-22T06:58:27;100315.69;;;28.28;54.77
33697;BME280;20031;43.416;23.232;2023-06-22T07:00:53;100310.88;;;28.49;53.95
33697;BME280;20031;43.416;23.232;2023-06-22T07:03:19;100307.94;;;28.46;53.00
33697;BME280;20031;43.416;23.232;2023-06-22T07:05:44;100310.88;;;28.49;53.07
33697;BME280;20031;43.416;23.232;2023-06-22T07:08:10;100310.88;;;28.39;52.40
33697;BME280;20031;43.416;23.232;2023-06-22T07:10:36;100313.28;;;28.31;52.73
33697;BME280;20031;43.416;23.232;2023-06-22T07:13:02;100322.13;;;28.22;52.99
33697;BME280;20031;43.416;23.232;2023-06-22T07:15:27;100321.06;;;28.37;52.65
33697;BME280;20031;43.416;23.232;2023-06-22T07:17:53;100324.28;;;28.44;53.39
33697;BME280;20031;43.416;23.232;2023-06-22T07:20:18;100322.41;;;28.60;53.07
33697;BME280;20031;43.416;23.232;2023-06-22T07:22:45;100323.75;;;28.97;52.52
33697;BME280;20031;43.416;23.232;2023-06-22T07:25:11;100320.75;;;29.13;51.02
33697;BME280;20031;43.416;23.232;2023-06-22T07:27:55;100319.41;;;29.16;49.97
33697;BME280;20031;43.416;23.232;2023-06-22T07:30:21;100311.34;;;29.31;50.66
33697;BME280;20031;43.416;23.232;2023-06-22T07:32:47;100316.69;;;29.40;50.04
33697;BME280;20031;43.416;23.232;2023-06-22T07:35:12;100315.06;;;29.49;49.02
33697;BME280;20031;43.416;23.232;2023-06-22T07:37:38;100308.31;;;29.62;49.47
33697;BME280;20031;43.416;23.232;2023-06-22T07:40:03;100306.09;;;29.74;48.02
33697;BME280;20031;43.416;23.232;2023-06-22T07:42:31;100305.84;;;29.60;48.13
33697;BME280;20031;43.416;23.232;2023-06-22T07:44:58;100294.09;;;29.56;48.12
33697;BME280;20031;43.416;23.232;2023-06-22T07:47:23;100300.72;;;29.74;48.86
33697;BME280;20031;43.416;23.232;2023-06-22T07:49:58;100287.50;;;29.87;48.84
33697;BME280;20031;43.416;23.232;2023-06-22T07:52:26;100296.00;;;30.04;49.68
33697;BME280;20031;43.416;23.232;2023-06-22T07:54:51;100290.06;;;30.45;48.88
33697;BME280;20031;43.416;23.232;2023-06-22T07:57:17;100292.97;;;30.53;47.47
33697;BME280;20031;43.416;23.232;2023-06-22T07:59:43;100293.59;;;30.45;47.96
33697;BME280;20031;43.416;23.232;2023-06-22T08:02:08;100297.75;;;30.61;47.58
33697;BME280;20031;43.416;23.232;2023-06-22T08:04:34;100299.78;;;30.74;47.66
33697;BME280;20031;43.416;23.232;2023-06-22T08:07:00;100302.31;;;30.94;48.15
33697;BME280;20031;43.416;23.232;2023-06-22T08:09:28;100295.66;;;31.10;47.90
33697;BME280;20031;43.416;23.232;2023-06-22T08:11:54;100294.38;;;31.31;47.40
33697;BME280;20031;43.416;23.232;2023-06-22T08:14:22;100293.13;;;31.47;47.08
33697;BME280;20031;43.416;23.232;2023-06-22T08:16:47;100293.03;;;31.51;47.19
33697;BME280;20031;43.416;23.232;2023-06-22T08:19:12;100295.56;;;31.66;46.02
33697;BME280;20031;43.416;23.232;2023-06-22T08:21:38;100297.09;;;31.72;46.25
33697;BME280;20031;43.416;23.232;2023-06-22T08:24:04;100299.31;;;31.89;46.16
33697;BME280;20031;43.416;23.232;2023-06-22T08:26:29;100298.06;;;31.99;44.99
33697;BME280;20031;43.416;23.232;2023-06-22T08:28:55;100292.28;;;31.88;45.26
33697;BME280;20031;43.416;23.232;2023-06-22T08:31:20;100291.91;;;31.94;45.04
33697;BME280;20031;43.416;23.232;2023-06-22T08:33:46;100280.59;;;32.15;45.72
33697;BME280;20031;43.416;23.232;2023-06-22T08:36:12;100279.56;;;32.30;44.72
33697;BME280;20031;43.416;23.232;2023-06-22T08:38:38;100267.66;;;32.49;44.97
33697;BME280;20031;43.416;23.232;2023-06-22T08:41:04;100273.00;;;32.67;44.07
33697;BME280;20031;43.416;23.232;2023-06-22T08:43:29;100266.09;;;32.75;43.10
33697;BME280;20031;43.416;23.232;2023-06-22T08:45:55;100269.94;;;32.87;43.61
33697;BME280;20031;43.416;23.232;2023-06-22T08:48:20;100274.72;;;32.77;42.67
33697;BME280;20031;43.416;23.232;2023-06-22T08:50:46;100271.53;;;32.88;42.71
33697;BME280;20031;43.416;23.232;2023-06-22T08:53:11;100273.38;;;33.06;42.70
33697;BME280;20031;43.416;23.232;2023-06-22T08:55:37;100275.88;;;33.16;41.98
33697;BME280;20031;43.416;23.232;2023-06-22T08:58:02;100275.41;;;33.27;42.02
33697;BME280;20031;43.416;23.232;2023-06-22T09:00:28;100271.09;;;33.26;42.74
33697;BME280;20031;43.416;23.232;2023-06-22T09:02:57;100262.06;;;33.31;42.08
33697;BME280;20031;43.416;23.232;2023-06-22T09:05:24;100260.25;;;33.40;42.92
33697;BME280;20031;43.416;23.232;2023-06-22T09:07:51;100256.69;;;33.58;42.24
33697;BME280;20031;43.416;23.232;2023-06-22T09:10:17;100247.56;;;33.54;42.27
33697;BME280;20031;43.416;23.232;2023-06-22T09:12:42;100255.94;;;33.65;42.62
33697;BME280;20031;43.416;23.232;2023-06-22T09:15:08;100251.44;;;33.61;42.15
33697;BME280;20031;43.416;23.232;2023-06-22T09:17:34;100242.44;;;33.65;42.30
33697;BME280;20031;43.416;23.232;2023-06-22T09:20:01;100242.72;;;33.77;41.46
33697;BME280;20031;43.416;23.232;2023-06-22T09:22:27;100244.97;;;33.84;40.92
33697;BME280;20031;43.416;23.232;2023-06-22T09:24:55;100247.75;;;33.92;40.85
33697;BME280;20031;43.416;23.232;2023-06-22T09:27:21;100246.91;;;33.83;41.08
33697;BME280;20031;43.416;23.232;2023-06-22T09:29:47;100245.81;;;34.19;40.93
33697;BME280;20031;43.416;23.232;2023-06-22T09:32:13;100242.97;;;34.46;40.09
33697;BME280;20031;43.416;23.232;2023-06-22T09:34:38;100255.00;;;34.18;40.79
33697;BME280;20031;43.416;23.232;2023-06-22T09:37:04;100255.50;;;33.99;40.91
33697;BME280;20031;43.416;23.232;2023-06-22T09:39:30;100251.63;;;34.35;41.01
33697;BME280;20031;43.416;23.232;2023-06-22T09:41:57;100257.84;;;34.35;40.96
33697;BME280;20031;43.416;23.232;2023-06-22T09:44:23;100254.88;;;34.67;40.57
33697;BME280;20031;43.416;23.232;2023-06-22T09:46:48;100259.53;;;35.05;40.58
33697;BME280;20031;43.416;23.232;2023-06-22T09:49:14;100249.19;;;35.07;39.56
33697;BME280;20031;43.416;23.232;2023-06-22T09:51:39;100265.19;;;35.25;39.20
33697;BME280;20031;43.416;23.232;2023-06-22T09:54:05;100251.31;;;35.27;38.63
33697;BME280;20031;43.416;23.232;2023-06-22T09:56:30;100254.88;;;35.36;38.98
33697;BME280;20031;43.416;23.232;2023-06-22T09:58:56;100253.84;;;34.85;38.98
33697;BME280;20031;43.416;23.232;2023-06-22T10:01:22;100254.41;;;34.21;40.23
33697;BME280;20031;43.416;23.232;2023-06-22T10:03:48;100250.88;;;33.99;40.85
33697;BME280;20031;43.416;23.232;2023-06-22T10:06:13;100266.22;;;33.90;40.91
33697;BME280;20031;43.416;23.232;2023-06-22T10:08:38;100264.13;;;33.74;41.15
33697;BME280;20031;43.416;23.232;2023-06-22T10:11:06;100268.41;;;33.53;41.72
33697;BME280;20031;43.416;23.232;2023-06-22T10:13:31;100262.47;;;33.51;42.16
33697;BME280;20031;43.416;23.232;2023-06-22T10:15:57;100260.06;;;33.63;41.92
33697;BME280;20031;43.416;23.232;2023-06-22T10:18:22;100256.69;;;33.58;42.72
33697;BME280;20031;43.416;23.232;2023-06-22T10:20:49;100257.31;;;33.90;43.75
33697;BME280;20031;43.416;23.232;2023-06-22T10:23:17;100249.34;;;34.28;42.67
33697;BME280;20031;43.416;23.232;2023-06-22T10:25:42;100252.94;;;34.15;43.52
33697;BME280;20031;43.416;23.232;2023-06-22T10:28:09;100254.41;;;34.00;44.04
33697;BME280;20031;43.416;23.232;2023-06-22T10:30:36;100261.50;;;33.82;43.81
33697;BME280;20031;43.416;23.232;2023-06-22T10:33:01;100261.72;;;33.72;44.71
33697;BME280;20031;43.416;23.232;2023-06-22T10:35:27;100262.47;;;33.51;45.33
33697;BME280;20031;43.416;23.232;2023-06-22T10:37:53;100258.28;;;33.05;46.84
33697;BME280;20031;43.416;23.232;2023-06-22T10:40:20;100267.00;;;33.02;46.97
33697;BME280;20031;43.416;23.232;2023-06-22T10:42:46;100267.75;;;32.89;47.58
33697;BME280;20031;43.416;23.232;2023-06-22T10:45:12;100272.31;;;32.75;48.10
33697;BME280;20031;43.416;23.232;2023-06-22T10:47:40;100272.69;;;32.55;47.81
33697;BME280;20031;43.416;23.232;2023-06-22T10:50:08;100273.19;;;32.39;48.29
33697;BME280;20031;43.416;23.232;2023-06-22T10:52:34;100265.63;;;32.23;48.49
33697;BME280;20031;43.416;23.232;2023-06-22T10:55:00;100266.75;;;32.35;48.67
33697;BME280;20031;43.416;23.232;2023-06-22T10:57:26;100269.41;;;32.40;48.58
33697;BME280;20031;43.416;23.232;2023-06-22T10:59:54;100267.06;;;32.34;48.91
33697;BME280;20031;43.416;23.232;2023-06-22T11:02:21;100270.28;;;32.67;49.03
33697;BME280;20031;43.416;23.232;2023-06-22T11:04:46;100274.19;;;33.06;48.83
33697;BME280;20031;43.416;23.232;2023-06-22T11:07:13;100276.38;;;33.31;49.07
33697;BME280;20031;43.416;23.232;2023-06-22T11:09:40;100279.19;;;33.26;48.13
33697;BME280;20031;43.416;23.232;2023-06-22T11:12:10;100273.59;;;33.36;48.68
33697;BME280;20031;43.416;23.232;2023-06-22T11:14:43;100272.88;;;33.31;48.59
33697;BME280;20031;43.416;23.232;2023-06-22T11:17:19;100273.97;;;33.30;48.85
33697;BME280;20031;43.416;23.232;2023-06-22T11:19:52;100274.91;;;33.39;48.95
33697;BME280;20031;43.416;23.232;2023-06-22T11:22:21;100285.88;;;33.15;48.36
33697;BME280;20031;43.416;23.232;2023-06-22T11:24:51;100277.38;;;33.08;49.61
33697;BME280;20031;43.416;23.232;2023-06-22T11:27:21;100279.66;;;33.02;48.68
33697;BME280;20031;43.416;23.232;2023-06-22T11:29:51;100281.09;;;32.99;48.80
33697;BME280;20031;43.416;23.232;2023-06-22T11:32:21;100273.78;;;33.13;48.33
33697;BME280;20031;43.416;23.232;2023-06-22T11:34:52;100274.19;;;33.60;48.27
33697;BME280;20031;43.416;23.232;2023-06-22T11:37:25;100272.56;;;33.72;47.46
33697;BME280;20031;43.416;23.232;2023-06-22T11:39:57;100271.75;;;33.72;46.74
33697;BME280;20031;43.416;23.232;2023-06-22T11:42:24;100266.06;;;33.73;46.20
33697;BME280;20031;43.416;23.232;2023-06-22T11:44:50;100270.75;;;33.81;46.21
33697;BME280;20031;43.416;23.232;2023-06-22T11:47:16;100268.34;;;33.80;46.04
33697;BME280;20031;43.416;23.232;2023-06-22T11:49:41;100263.28;;;33.87;45.81
33697;BME280;20031;43.416;23.232;2023-06-22T11:52:07;100260.16;;;33.71;45.23
33697;BME280;20031;43.416;23.232;2023-06-22T11:54:35;100272.28;;;33.60;45.63
33697;BME280;20031;43.416;23.232;2023-06-22T11:57:11;100264.28;;;33.42;45.79
33697;BME280;20031;43.416;23.232;2023-06-22T11:59:45;100274.97;;;33.34;46.34
33697;BME280;20031;43.416;23.232;2023-06-22T12:02:17;100274.38;;;32.97;44.86
33697;BME280;20031;43.416;23.232;2023-06-22T12:04:55;100270.72;;;32.74;45.79
33697;BME280;20031;43.416;23.232;2023-06-22T12:07:30;100276.59;;;32.63;46.25
33697;BME280;20031;43.416;23.232;2023-06-22T12:10:04;100267.28;;;32.55;46.20
33697;BME280;20031;43.416;23.232;2023-06-22T12:12:36;100265.31;;;32.43;45.86
33697;BME280;20031;43.416;23.232;2023-06-22T12:15:11;100265.53;;;32.28;45.67
33697;BME280;20031;43.416;23.232;2023-06-22T12:17:45;100267.44;;;32.27;47.08
33697;BME280;20031;43.416;23.232;2023-06-22T12:20:20;100266.97;;;32.07;45.90
33697;BME280;20031;43.416;23.232;2023-06-22T12:22:54;100265.25;;;31.93;47.07
33697;BME280;20031;43.416;23.232;2023-06-22T12:25:28;100257.09;;;31.79;47.73
33697;BME280;20031;43.416;23.232;2023-06-22T12:28:00;100253.63;;;31.79;47.85
33697;BME280;20031;43.416;23.232;2023-06-22T12:30:27;100247.19;;;31.75;48.46
33697;BME280;20031;43.416;23.232;2023-06-22T12:32:55;100247.69;;;31.77;49.09
33697;BME280;20031;43.416;23.232;2023-06-22T12:35:25;100242.75;;;31.65;48.24
33697;BME280;20031;43.416;23.232;2023-06-22T12:37:56;100243.84;;;31.41;48.86
33697;BME280;20031;43.416;23.232;2023-06-22T12:40:26;100243.78;;;31.28;49.41
33697;BME280;20031;43.416;23.232;2023-06-22T12:42:53;100239.00;;;31.20;49.49
33697;BME280;20031;43.416;23.232;2023-06-22T12:45:22;100244.91;;;31.22;49.82